createdAt,value
2018-08-11T00:00:30.014Z,16.22
2018-08-11T00:02:59.309Z,16.19
2018-08-11T00:05:28.638Z,16.19
2018-08-11T00:07:57.960Z,16.26
2018-08-11T00:10:27.282Z,16.28
2018-08-11T00:12:56.558Z,16.25
2018-08-11T00:15:25.833Z,16.25
2018-08-11T00:17:55.117Z,16.26
2018-08-11T00:20:26.480Z,16.32
2018-08-11T00:22:55.810Z,16.45
2018-08-11T00:25:25.136Z,16.51
2018-08-11T00:27:54.414Z,16.51
2018-08-11T00:30:23.752Z,16.50
2018-08-11T00:32:53.071Z,16.55
2018-08-11T00:35:22.413Z,16.57
2018-08-11T00:37:51.666Z,16.56
2018-08-11T00:40:21.226Z,16.50
2018-08-11T00:42:51.194Z,16.49
2018-08-11T00:45:20.846Z,16.49
2018-08-11T00:47:50.146Z,16.44
2018-08-11T00:50:23.516Z,16.39
2018-08-11T00:52:53.100Z,16.39
2018-08-11T00:55:22.464Z,16.34
2018-08-11T00:57:51.754Z,16.37
2018-08-11T01:00:21.146Z,16.34
2018-08-11T01:02:50.503Z,16.39
2018-08-11T01:05:20.936Z,16.40
2018-08-11T01:07:50.973Z,16.37
2018-08-11T01:10:20.594Z,16.37
2018-08-11T01:12:50.180Z,16.31
2018-08-11T01:15:23.352Z,16.27
2018-08-11T01:17:53.109Z,16.33
2018-08-11T01:20:22.394Z,16.30
2018-08-11T01:22:51.781Z,16.32
2018-08-11T01:25:21.097Z,16.36
2018-08-11T01:27:51.018Z,16.42
2018-08-11T01:30:21.737Z,16.42
2018-08-11T01:32:51.156Z,16.47
2018-08-11T01:35:20.428Z,16.49
2018-08-11T01:37:49.768Z,16.39
2018-08-11T01:40:19.077Z,16.36
2018-08-11T01:42:49.238Z,16.30
2018-08-11T01:45:18.948Z,16.27
2018-08-11T01:47:48.259Z,16.23
2018-08-11T01:50:17.596Z,16.31
2018-08-11T01:52:47.717Z,16.38
2018-08-11T01:55:18.240Z,16.43
2018-08-11T01:57:47.604Z,16.63
2018-08-11T02:00:17.805Z,16.63
2018-08-11T02:02:47.134Z,16.66
2018-08-11T02:05:16.416Z,16.68
2018-08-11T02:07:46.031Z,16.72
2018-08-11T02:10:17.831Z,16.84
2018-08-11T02:12:47.609Z,16.71
2018-08-11T02:15:17.154Z,16.76
2018-08-11T02:17:46.523Z,16.86
2018-08-11T02:20:18.130Z,16.77
2018-08-11T02:22:48.339Z,16.71
2018-08-11T02:25:17.584Z,16.68
2018-08-11T02:27:46.892Z,16.53
2018-08-11T02:30:17.358Z,16.52
2018-08-11T02:32:46.682Z,16.58
2018-08-11T02:35:16.056Z,16.56
2018-08-11T02:37:45.353Z,16.69
2018-08-11T02:40:16.350Z,16.67
2018-08-11T02:42:45.647Z,16.67
2018-08-11T02:45:16.734Z,16.67
2018-08-11T02:47:46.654Z,16.68
2018-08-11T02:50:15.974Z,16.66
2018-08-11T02:52:45.301Z,16.56
2018-08-11T02:55:14.888Z,16.54
2018-08-11T02:57:44.119Z,16.53
2018-08-11T03:00:13.607Z,16.44
2018-08-11T03:02:42.855Z,16.38
2018-08-11T03:05:12.149Z,16.35
2018-08-11T03:07:41.470Z,16.26
2018-08-11T03:10:11.996Z,16.29
2018-08-11T03:12:44.658Z,16.26
2018-08-11T03:15:14.014Z,16.24
2018-08-11T03:17:43.265Z,16.21
2018-08-11T03:20:14.001Z,16.18
2018-08-11T03:22:43.841Z,16.10
2018-08-11T03:25:13.189Z,16.08
2018-08-11T03:27:42.461Z,16.13
2018-08-11T03:30:11.832Z,16.15
2018-08-11T03:32:41.241Z,16.18
2018-08-11T03:35:10.522Z,16.12
2018-08-11T03:37:39.822Z,16.11
2018-08-11T03:40:10.852Z,16.12
2018-08-11T03:42:41.007Z,16.13
2018-08-11T03:45:10.422Z,16.13
2018-08-11T03:47:39.677Z,16.16
2018-08-11T03:50:09.006Z,16.07
2018-08-11T03:52:38.502Z,15.99
2018-08-11T03:55:07.722Z,16.07
2018-08-11T03:57:37.000Z,15.91
2018-08-11T04:00:10.096Z,15.92
2018-08-11T04:02:39.393Z,15.99
2018-08-11T04:05:08.825Z,16.07
2018-08-11T04:07:38.101Z,16.18
2018-08-11T04:10:07.418Z,16.07
2018-08-11T04:12:36.780Z,15.96
2018-08-11T04:15:06.449Z,16.00
2018-08-11T04:17:38.557Z,16.00
2018-08-11T04:20:09.721Z,15.90
2018-08-11T04:22:38.977Z,15.90
2018-08-11T04:25:08.815Z,15.92
2018-08-11T04:27:38.370Z,15.88
2018-08-11T04:30:09.421Z,16.03
2018-08-11T04:32:38.842Z,16.08
2018-08-11T04:35:08.187Z,16.04
2018-08-11T04:37:37.470Z,16.07
2018-08-11T04:40:06.866Z,16.11
2018-08-11T04:42:36.141Z,16.09
2018-08-11T04:45:07.079Z,16.12
2018-08-11T04:47:36.379Z,16.25
2018-08-11T04:50:06.278Z,16.31
2018-08-11T04:52:36.165Z,16.38
2018-08-11T04:55:05.617Z,16.46
2018-08-11T04:57:34.944Z,16.60
2018-08-11T05:00:04.935Z,16.65
2018-08-11T05:02:34.314Z,16.70
2018-08-11T05:05:03.591Z,16.80
2018-08-11T05:07:32.881Z,16.97
2018-08-11T05:10:02.237Z,17.08
2018-08-11T05:12:31.623Z,17.17
2018-08-11T05:15:00.897Z,17.25
2018-08-11T05:17:30.227Z,17.35
2018-08-11T05:19:59.564Z,17.51
2018-08-11T05:22:28.989Z,17.50
2018-08-11T05:24:58.332Z,17.65
2018-08-11T05:27:27.794Z,17.85
2018-08-11T05:29:57.110Z,18.29
2018-08-11T05:32:26.508Z,18.36
2018-08-11T05:34:56.195Z,18.66
2018-08-11T05:37:25.574Z,18.31
2018-08-11T05:39:54.971Z,18.24
2018-08-11T05:42:24.319Z,18.25
2018-08-11T05:44:54.097Z,18.35
2018-08-11T05:47:23.533Z,18.39
2018-08-11T05:49:52.882Z,18.37
2018-08-11T05:52:22.282Z,18.30
2018-08-11T05:54:51.651Z,18.23
2018-08-11T05:57:20.968Z,18.38
2018-08-11T05:59:50.305Z,18.46
2018-08-11T06:02:19.577Z,18.65
2018-08-11T06:04:48.899Z,19.04
2018-08-11T06:07:18.207Z,19.25
2018-08-11T06:09:47.627Z,19.41
2018-08-11T06:12:16.935Z,19.68
2018-08-11T06:14:46.218Z,19.56
2018-08-11T06:17:15.585Z,19.70
2018-08-11T06:19:44.872Z,20.30
2018-08-11T06:22:14.181Z,20.66
2018-08-11T06:24:43.461Z,19.93
2018-08-11T06:27:12.784Z,19.66
2018-08-11T06:29:42.070Z,19.81
2018-08-11T06:32:11.459Z,19.69
2018-08-11T06:34:40.736Z,19.54
2018-08-11T06:37:10.055Z,19.74
2018-08-11T06:39:39.466Z,19.59
2018-08-11T06:42:08.822Z,19.95
2018-08-11T06:44:38.081Z,20.00
2018-08-11T06:47:07.575Z,19.82
2018-08-11T06:49:36.937Z,19.78
2018-08-11T06:52:06.437Z,19.43
2018-08-11T06:54:36.869Z,19.49
2018-08-11T06:57:06.241Z,19.43
2018-08-11T06:59:35.843Z,19.55
2018-08-11T07:02:05.248Z,19.64
2018-08-11T07:04:34.652Z,19.60
2018-08-11T07:07:04.111Z,19.39
2018-08-11T07:09:33.482Z,19.48
2018-08-11T07:12:02.797Z,19.37
2018-08-11T07:14:32.191Z,19.46
2018-08-11T07:17:01.623Z,19.53
2018-08-11T07:19:30.742Z,19.37
2018-08-11T07:22:00.076Z,19.36
2018-08-11T07:24:29.478Z,19.32
2018-08-11T07:26:58.844Z,19.66
2018-08-11T07:29:28.202Z,20.01
2018-08-11T07:31:57.573Z,20.53
2018-08-11T07:34:26.923Z,20.54
2018-08-11T07:36:56.422Z,20.83
2018-08-11T07:39:25.872Z,21.27
2018-08-11T07:41:55.267Z,21.12
2018-08-11T07:44:24.910Z,20.81
2018-08-11T07:46:54.335Z,20.97
2018-08-11T07:49:23.892Z,20.93
2018-08-11T07:51:53.298Z,20.81
2018-08-11T07:54:22.665Z,20.69
2018-08-11T07:56:52.016Z,21.27
2018-08-11T07:59:21.414Z,20.83
2018-08-11T08:01:50.815Z,20.55
2018-08-11T08:04:20.151Z,21.03
2018-08-11T08:06:49.512Z,20.93
2018-08-11T08:09:18.790Z,21.15
2018-08-11T08:11:48.174Z,21.82
2018-08-11T08:14:17.718Z,21.60
2018-08-11T08:16:47.190Z,22.34
2018-08-11T08:19:16.699Z,22.49
2018-08-11T08:21:46.091Z,22.46
2018-08-11T08:24:15.425Z,21.57
2018-08-11T08:26:44.875Z,21.51
2018-08-11T08:29:14.318Z,22.20
2018-08-11T08:31:43.832Z,22.48
2018-08-11T08:34:13.170Z,22.52
2018-08-11T08:36:42.780Z,22.59
2018-08-11T08:39:12.974Z,22.31
2018-08-11T08:41:42.805Z,22.14
2018-08-11T08:44:12.194Z,22.27
2018-08-11T08:46:41.668Z,22.68
2018-08-11T08:49:11.099Z,22.88
2018-08-11T08:51:40.490Z,23.17
2018-08-11T08:54:09.897Z,22.57
2018-08-11T08:56:39.372Z,22.31
2018-08-11T08:59:08.774Z,22.18
2018-08-11T09:01:38.208Z,22.44
2018-08-11T09:04:07.611Z,22.35
2018-08-11T09:06:36.995Z,22.47
2018-08-11T09:09:10.143Z,22.57
2018-08-11T09:11:39.994Z,22.44
2018-08-11T09:14:09.418Z,22.80
2018-08-11T09:16:38.790Z,23.03
2018-08-11T09:19:08.203Z,22.40
2018-08-11T09:21:37.643Z,22.55
2018-08-11T09:24:07.113Z,22.76
2018-08-11T09:26:36.527Z,22.85
2018-08-11T09:29:06.007Z,22.89
2018-08-11T09:31:35.370Z,23.88
2018-08-11T09:34:04.766Z,23.69
2018-08-11T09:36:34.179Z,23.50
2018-08-11T09:39:03.751Z,24.05
2018-08-11T09:41:33.133Z,24.25
2018-08-11T09:44:02.479Z,24.18
2018-08-11T09:46:31.843Z,23.41
2018-08-11T09:49:01.222Z,23.08
2018-08-11T09:51:30.582Z,22.75
2018-08-11T09:53:59.920Z,22.52
2018-08-11T09:56:29.223Z,22.88
2018-08-11T09:58:58.547Z,23.36
2018-08-11T10:01:33.133Z,23.05
2018-08-11T10:04:02.521Z,22.87
2018-08-11T10:06:31.843Z,23.29
2018-08-11T10:09:01.238Z,24.87
2018-08-11T10:11:30.618Z,24.51
2018-08-11T10:13:59.921Z,24.44
2018-08-11T10:16:29.213Z,25.13
2018-08-11T10:18:58.573Z,25.05
2018-08-11T10:21:27.951Z,25.21
2018-08-11T10:23:57.349Z,25.34
2018-08-11T10:26:26.770Z,23.90
2018-08-11T10:28:56.066Z,23.11
2018-08-11T10:31:25.390Z,22.82
2018-08-11T10:33:54.786Z,23.54
2018-08-11T10:36:24.130Z,24.17
2018-08-11T10:38:53.478Z,23.85
2018-08-11T10:41:22.809Z,24.13
2018-08-11T10:43:52.077Z,24.71
2018-08-11T10:46:21.396Z,24.56
2018-08-11T10:48:50.733Z,25.08
2018-08-11T10:51:21.167Z,24.97
2018-08-11T10:53:51.394Z,25.24
2018-08-11T10:56:22.213Z,25.01
2018-08-11T10:58:51.517Z,25.36
2018-08-11T11:01:20.899Z,25.58
2018-08-11T11:03:50.246Z,25.34
2018-08-11T11:06:19.569Z,25.46
2018-08-11T11:08:48.867Z,25.72
2018-08-11T11:11:18.129Z,26.05
2018-08-11T11:13:47.480Z,26.00
2018-08-11T11:16:16.968Z,25.87
2018-08-11T11:18:46.290Z,26.17
2018-08-11T11:21:15.578Z,26.43
2018-08-11T11:23:44.938Z,25.97
2018-08-11T11:26:14.210Z,24.52
2018-08-11T11:28:43.539Z,24.41
2018-08-11T11:31:12.810Z,25.24
2018-08-11T11:33:42.145Z,24.87
2018-08-11T11:36:11.461Z,24.35
2018-08-11T11:38:40.797Z,24.44
2018-08-11T11:41:10.179Z,24.82
2018-08-11T11:43:39.481Z,25.38
2018-08-11T11:46:08.789Z,25.01
2018-08-11T11:48:38.108Z,25.53
2018-08-11T11:51:07.393Z,25.53
2018-08-11T11:53:36.734Z,24.47
2018-08-11T11:56:06.111Z,24.16
2018-08-11T11:58:35.481Z,24.06
2018-08-11T12:01:04.881Z,23.67
2018-08-11T12:03:37.328Z,24.64
2018-08-11T12:06:06.739Z,24.63
2018-08-11T12:08:36.059Z,25.05
2018-08-11T12:11:05.818Z,25.36
2018-08-11T12:13:35.147Z,25.85
2018-08-11T12:16:04.647Z,25.71
2018-08-11T12:18:34.038Z,25.06
2018-08-11T12:21:03.571Z,24.88
2018-08-11T12:23:32.893Z,25.89
2018-08-11T12:26:02.310Z,25.97
2018-08-11T12:28:38.644Z,25.63
2018-08-11T12:31:08.028Z,25.94
2018-08-11T12:33:37.354Z,26.26
2018-08-11T12:36:06.714Z,26.58
2018-08-11T12:38:36.023Z,26.14
2018-08-11T12:41:05.478Z,25.67
2018-08-11T12:43:34.547Z,25.74
2018-08-11T12:46:04.031Z,25.94
2018-08-11T12:48:33.425Z,26.36
2018-08-11T12:51:02.783Z,25.32
2018-08-11T12:53:32.179Z,25.05
2018-08-11T12:56:01.478Z,25.58
2018-08-11T12:58:30.763Z,25.97
2018-08-11T13:01:00.171Z,26.24
2018-08-11T13:03:29.474Z,25.80
2018-08-11T13:05:58.774Z,26.02
2018-08-11T13:08:28.169Z,25.98
2018-08-11T13:10:57.474Z,25.68
2018-08-11T13:13:26.775Z,26.05
2018-08-11T13:15:56.059Z,26.45
2018-08-11T13:18:25.434Z,25.26
2018-08-11T13:20:54.781Z,24.53
2018-08-11T13:23:24.165Z,24.14
2018-08-11T13:25:53.559Z,24.65
2018-08-11T13:28:22.902Z,25.07
2018-08-11T13:30:52.309Z,25.42
2018-08-11T13:33:21.755Z,25.79
2018-08-11T13:35:51.149Z,25.73
2018-08-11T13:38:20.660Z,25.01
2018-08-11T13:40:50.151Z,24.94
2018-08-11T13:43:19.481Z,25.03
2018-08-11T13:45:49.260Z,25.34
2018-08-11T13:48:18.763Z,25.69
2018-08-11T13:50:48.434Z,26.40
2018-08-11T13:56:17.102Z,26.50
2018-08-11T13:58:47.335Z,26.37
2018-08-11T14:01:16.937Z,25.24
2018-08-11T14:03:46.326Z,24.83
2018-08-11T14:06:15.654Z,25.13
2018-08-11T14:08:45.190Z,26.00
2018-08-11T14:11:14.620Z,26.23
2018-08-11T14:13:44.061Z,25.68
2018-08-11T14:16:13.665Z,25.95
2018-08-11T14:18:43.025Z,26.26
2018-08-11T14:21:12.663Z,26.59
2018-08-11T14:23:42.137Z,26.39
2018-08-11T14:26:11.598Z,26.41
2018-08-11T14:28:41.105Z,26.05
2018-08-11T14:31:10.556Z,25.39
2018-08-11T14:33:39.898Z,25.06
2018-08-11T14:36:09.517Z,25.71
2018-08-11T14:38:39.097Z,26.58
2018-08-11T14:41:08.575Z,26.69
2018-08-11T14:43:37.966Z,26.68
2018-08-11T14:46:08.166Z,27.06
2018-08-11T14:48:37.784Z,26.98
2018-08-11T14:51:07.618Z,27.13
2018-08-11T14:53:37.391Z,26.74
2018-08-11T14:56:07.120Z,26.64
2018-08-11T14:58:36.856Z,26.64
2018-08-11T15:01:06.623Z,26.53
2018-08-11T15:03:36.290Z,25.68
2018-08-11T15:06:05.742Z,25.05
2018-08-11T15:08:35.252Z,25.13
2018-08-11T15:11:04.905Z,25.83
2018-08-11T15:13:34.638Z,24.77
2018-08-11T15:16:04.064Z,24.41
2018-08-11T15:18:33.441Z,24.33
2018-08-11T15:21:02.737Z,24.46
2018-08-11T15:23:32.085Z,25.27
2018-08-11T15:26:01.543Z,25.65
2018-08-11T15:28:30.856Z,26.02
2018-08-11T15:31:00.226Z,26.06
2018-08-11T15:33:29.556Z,26.16
2018-08-11T15:35:58.907Z,25.41
2018-08-11T15:38:28.305Z,25.04
2018-08-11T15:40:57.670Z,24.45
2018-08-11T15:43:26.999Z,24.46
2018-08-11T15:45:56.348Z,25.38
2018-08-11T15:48:25.699Z,26.00
2018-08-11T15:50:55.076Z,25.66
2018-08-11T15:53:24.825Z,25.14
2018-08-11T15:55:54.225Z,25.07
2018-08-11T15:58:23.719Z,24.95
2018-08-11T16:00:52.985Z,25.59
2018-08-11T16:03:22.591Z,25.19
2018-08-11T16:05:51.976Z,25.44
2018-08-11T16:08:21.551Z,24.99
2018-08-11T16:10:50.964Z,24.91
2018-08-11T16:13:20.452Z,24.78
2018-08-11T16:15:50.011Z,24.83
2018-08-11T16:18:19.512Z,25.17
2018-08-11T16:20:48.942Z,25.29
2018-08-11T16:23:18.428Z,25.22
2018-08-11T16:25:47.852Z,25.41
2018-08-11T16:28:17.325Z,25.28
2018-08-11T16:30:46.732Z,25.18
2018-08-11T16:33:16.175Z,25.21
2018-08-11T16:35:45.658Z,25.45
2018-08-11T16:38:15.007Z,25.05
2018-08-11T16:40:44.340Z,25.00
2018-08-11T16:43:13.695Z,24.90
2018-08-11T16:45:43.173Z,24.95
2018-08-11T16:48:12.627Z,24.95
2018-08-11T16:50:42.118Z,24.79
2018-08-11T16:53:11.691Z,24.65
2018-08-11T16:55:41.007Z,24.50
2018-08-11T16:58:12.519Z,24.56
2018-08-11T17:00:41.960Z,24.66
2018-08-11T17:03:11.306Z,24.59
2018-08-11T17:05:40.699Z,24.40
2018-08-11T17:08:10.178Z,25.37
2018-08-11T17:10:39.582Z,25.85
2018-08-11T17:13:09.109Z,26.24
2018-08-11T17:15:38.437Z,26.47
2018-08-11T17:18:07.886Z,26.39
2018-08-11T17:20:37.294Z,26.62
2018-08-11T17:23:06.637Z,26.28
2018-08-11T17:25:35.969Z,26.02
2018-08-11T17:28:06.053Z,26.06
2018-08-11T17:30:35.577Z,26.34
2018-08-11T17:33:05.231Z,26.03
2018-08-11T17:35:34.828Z,25.86
2018-08-11T17:38:04.386Z,25.52
2018-08-11T17:40:33.824Z,25.60
2018-08-11T17:43:03.295Z,25.28
2018-08-11T17:45:33.253Z,24.85
2018-08-11T17:48:02.765Z,24.47
2018-08-11T17:50:32.175Z,23.79
2018-08-11T17:53:01.617Z,23.39
2018-08-11T17:55:31.400Z,22.99
2018-08-11T17:58:00.753Z,22.88
2018-08-11T18:00:30.465Z,22.87
2018-08-11T18:02:59.949Z,22.64
2018-08-11T18:05:29.359Z,22.52
2018-08-11T18:07:59.626Z,22.37
2018-08-11T18:10:29.040Z,22.24
2018-08-11T18:12:58.424Z,22.08
2018-08-11T18:15:27.903Z,21.99
2018-08-11T18:17:57.333Z,21.89
2018-08-11T18:20:26.742Z,21.76
2018-08-11T18:22:55.821Z,21.65
2018-08-11T18:25:25.328Z,21.66
2018-08-11T18:27:54.668Z,21.50
2018-08-11T18:30:24.004Z,21.51
2018-08-11T18:32:53.378Z,21.33
2018-08-11T18:35:22.875Z,21.28
2018-08-11T18:37:52.252Z,21.16
2018-08-11T18:40:21.707Z,21.03
2018-08-11T18:42:50.961Z,21.00
2018-08-11T18:45:20.510Z,20.89
2018-08-11T18:47:49.784Z,20.56
2018-08-11T18:50:19.038Z,20.64
2018-08-11T18:52:48.389Z,20.55
2018-08-11T18:55:17.784Z,20.41
2018-08-11T18:57:47.093Z,20.27
2018-08-11T19:00:18.502Z,20.13
2018-08-11T19:02:47.861Z,19.93
2018-08-11T19:05:17.236Z,19.87
2018-08-11T19:07:46.618Z,19.82
2018-08-11T19:10:15.935Z,19.68
2018-08-11T19:12:45.303Z,19.62
2018-08-11T19:15:15.106Z,19.51
2018-08-11T19:17:44.512Z,19.44
2018-08-11T19:20:14.753Z,19.43
2018-08-11T19:22:44.102Z,19.35
2018-08-11T19:25:13.509Z,19.31
2018-08-11T19:27:42.922Z,19.21
2018-08-11T19:30:12.357Z,19.11
2018-08-11T19:32:41.732Z,19.08
2018-08-11T19:35:11.096Z,19.01
2018-08-11T19:37:40.762Z,18.94
2018-08-11T19:40:10.368Z,18.87
2018-08-11T19:42:39.750Z,18.77
2018-08-11T19:45:11.166Z,18.69
2018-08-11T19:47:40.927Z,18.63
2018-08-11T19:50:12.039Z,18.60
2018-08-11T19:52:42.350Z,18.52
2018-08-11T19:55:11.793Z,18.46
2018-08-11T19:57:41.162Z,18.43
2018-08-11T20:00:13.382Z,18.37
2018-08-11T20:02:43.334Z,18.27
2018-08-11T20:05:12.761Z,18.16
2018-08-11T20:07:42.289Z,18.05
2018-08-11T20:10:11.662Z,18.03
2018-08-11T20:12:41.221Z,17.87
2018-08-11T20:15:11.088Z,17.83
2018-08-11T20:17:40.489Z,17.72
2018-08-11T20:20:10.819Z,17.73
2018-08-11T20:22:40.202Z,17.69
2018-08-11T20:25:09.548Z,17.61
2018-08-11T20:27:38.886Z,17.63
2018-08-11T20:30:10.166Z,17.56
2018-08-11T20:32:39.492Z,17.50
2018-08-11T20:35:08.869Z,17.47
2018-08-11T20:37:38.160Z,17.38
2018-08-11T20:40:07.506Z,17.22
2018-08-11T20:42:37.009Z,17.10
2018-08-11T20:45:07.941Z,17.12
2018-08-11T20:47:37.352Z,17.11
2018-08-11T20:50:07.406Z,17.03
2018-08-11T20:52:36.787Z,17.01
2018-08-11T20:55:07.818Z,16.92
2018-08-11T20:57:37.157Z,16.89
2018-08-11T21:00:10.470Z,16.81
2018-08-11T21:02:39.944Z,16.84
2018-08-11T21:05:12.199Z,16.77
2018-08-11T21:07:41.583Z,16.74
2018-08-11T21:10:15.138Z,16.74
2018-08-11T21:12:44.880Z,16.68
2018-08-11T21:15:14.275Z,16.64
2018-08-11T21:17:43.578Z,16.61
2018-08-11T21:20:14.146Z,16.55
2018-08-11T21:22:43.426Z,16.53
2018-08-11T21:25:12.858Z,16.38
2018-08-11T21:27:41.966Z,16.41
2018-08-11T21:30:13.614Z,16.39
2018-08-11T21:32:43.157Z,16.22
2018-08-11T21:35:12.437Z,16.12
2018-08-11T21:37:41.813Z,16.30
2018-08-11T21:40:13.337Z,16.30
2018-08-11T21:42:43.095Z,16.14
2018-08-11T21:45:12.368Z,16.17
2018-08-11T21:47:42.525Z,16.02
2018-08-11T21:50:11.936Z,15.98
2018-08-11T21:52:41.279Z,16.08
2018-08-11T21:55:10.635Z,15.99
2018-08-11T21:57:40.061Z,16.01
2018-08-11T22:00:46.471Z,15.95
2018-08-11T22:03:15.811Z,15.95
2018-08-11T22:05:45.140Z,15.80
2018-08-11T22:08:14.413Z,15.70
2018-08-11T22:10:43.777Z,15.73
2018-08-11T22:13:13.115Z,15.81
2018-08-11T22:15:42.411Z,15.71
2018-08-11T22:18:11.734Z,15.72
2018-08-11T22:20:41.042Z,15.67
2018-08-11T22:23:10.322Z,15.57
2018-08-11T22:25:39.583Z,15.63
2018-08-11T22:28:08.900Z,15.63
2018-08-11T22:30:38.203Z,15.48
2018-08-11T22:33:07.579Z,15.23
2018-08-11T22:35:36.850Z,15.28
2018-08-11T22:38:06.987Z,15.44
2018-08-11T22:40:36.277Z,15.41
2018-08-11T22:43:05.728Z,15.34
2018-08-11T22:45:35.072Z,15.25
2018-08-11T22:48:04.742Z,15.31
2018-08-11T22:50:34.078Z,15.33
2018-08-11T22:53:03.442Z,15.37
2018-08-11T22:55:32.768Z,15.27
2018-08-11T22:58:02.079Z,15.20
2018-08-11T23:00:31.381Z,15.15
2018-08-11T23:03:00.698Z,15.07
2018-08-11T23:05:30.033Z,14.93
2018-08-11T23:07:59.420Z,14.84
2018-08-11T23:10:28.725Z,14.90
2018-08-11T23:12:58.235Z,14.91
2018-08-11T23:15:27.523Z,14.89
2018-08-11T23:17:56.966Z,14.81
2018-08-11T23:20:26.294Z,14.81
2018-08-11T23:22:55.573Z,14.78
2018-08-11T23:25:24.904Z,14.77
2018-08-11T23:27:54.191Z,14.57
2018-08-11T23:30:23.527Z,14.50
2018-08-11T23:32:52.545Z,14.43
2018-08-11T23:35:21.807Z,14.31
2018-08-11T23:37:51.111Z,14.26
2018-08-11T23:40:20.425Z,14.30
2018-08-11T23:42:49.725Z,14.38
2018-08-11T23:45:19.045Z,14.35
2018-08-11T23:47:48.347Z,14.33
2018-08-11T23:50:17.653Z,14.33
2018-08-11T23:52:46.954Z,14.27
2018-08-11T23:55:16.261Z,14.20
2018-08-11T23:57:45.549Z,14.23
